Time;durP1;ratioP1;P1;durP2;ratioP2;P2;SDS_P1;SDS_P2;PMS_P1;PMS_P2;Temp;Humidity;BMP_temperature;BMP_pressure;BME280_temperature;BME280_humidity;BME280_pressure;Samples;Min_cycle;Max_cycle;Signal;HPM_P1;HPM_P2
2022/10/15 00:00:16;;;;;;;2.53;2.28;;;19.40;99.90;;;;;;4146828;28;20306;-72
2022/10/15 00:02:19;;;;;;;2.30;2.10;;;19.40;99.90;;;;;;4146373;28;20291;-72
2022/10/15 00:04:21;;;;;;;3.50;2.78;;;19.40;99.90;;;;;;4146777;28;20286;-72
2022/10/15 00:06:23;;;;;;;3.53;2.72;;;19.40;99.90;;;;;;4146530;28;20268;-72
2022/10/15 00:08:25;;;;;;;3.47;2.40;;;19.40;99.90;;;;;;4146658;28;20511;-73
2022/10/15 00:10:29;;;;;;;3.03;2.17;;;19.40;99.90;;;;;;4143418;28;20210;-73
2022/10/15 00:12:32;;;;;;;2.90;2.40;;;19.40;99.90;;;;;;4146702;28;20225;-72
2022/10/15 00:14:35;;;;;;;3.22;2.60;;;19.40;99.90;;;;;;4146530;28;20221;-73
2022/10/15 00:16:37;;;;;;;3.33;2.45;;;19.40;99.90;;;;;;4146770;28;20225;-73
2022/10/15 00:18:40;;;;;;;3.00;2.70;;;19.40;99.90;;;;;;4138306;28;20563;-72
2022/10/15 00:20:42;;;;;;;4.03;2.70;;;19.40;99.90;;;;;;4146662;28;20294;-72
2022/10/15 00:22:44;;;;;;;3.83;2.92;;;19.40;99.90;;;;;;4146855;28;20295;-72
2022/10/15 00:24:47;;;;;;;3.78;2.90;;;19.40;99.90;;;;;;4146781;28;20245;-73
2022/10/15 00:26:50;;;;;;;3.13;2.50;;;19.40;99.90;;;;;;4146632;28;20826;-73
2022/10/15 00:28:54;;;;;;;3.15;2.72;;;19.40;99.90;;;;;;4135789;28;20286;-72
2022/10/15 00:31:01;;;;;;;3.80;2.53;;;19.30;99.90;;;;;;4139649;28;20218;-73
2022/10/15 00:33:03;;;;;;;3.20;2.90;;;19.40;99.90;;;;;;4141384;28;20229;-72
2022/10/15 00:35:06;;;;;;;2.60;2.38;;;19.40;99.90;;;;;;4146056;28;20217;-72
2022/10/15 00:37:09;;;;;;;3.58;2.35;;;19.40;99.90;;;;;;4146409;28;20624;-73
2022/10/15 00:39:11;;;;;;;2.95;2.67;;;19.40;99.90;;;;;;4146666;28;20689;-72
2022/10/15 00:41:16;;;;;;;3.30;2.35;;;19.40;99.90;;;;;;4146439;28;20221;-73
2022/10/15 00:43:41;;;;;;;2.90;2.58;;;19.40;99.90;;;;;;4145390;28;20230;-72
2022/10/15 00:45:43;;;;;;;3.00;2.53;;;19.30;99.90;;;;;;4146021;28;20271;-72
2022/10/15 00:47:49;;;;;;;3.90;2.90;;;19.40;99.90;;;;;;4146214;28;20228;-72
2022/10/15 00:49:58;;;;;;;3.08;2.78;;;19.40;99.90;;;;;;4146518;28;20224;-72
2022/10/15 00:52:04;;;;;;;3.30;2.90;;;19.40;99.90;;;;;;4146278;28;20719;-72
2022/10/15 00:54:06;;;;;;;3.88;2.65;;;19.30;99.90;;;;;;4146356;28;20225;-72
2022/10/15 00:56:08;;;;;;;3.40;2.60;;;19.40;99.90;;;;;;4146055;28;20229;-73
2022/10/15 00:58:15;;;;;;;2.80;2.47;;;19.40;99.90;;;;;;4146716;28;20275;-73
2022/10/15 01:00:19;;;;;;;2.60;2.28;;;19.30;99.90;;;;;;4145523;28;20322;-72
2022/10/15 01:02:22;;;;;;;2.83;2.38;;;19.40;99.90;;;;;;4142736;28;20720;-73
2022/10/15 01:04:24;;;;;;;2.97;2.58;;;19.30;99.90;;;;;;4146154;28;20299;-73
2022/10/15 01:06:27;;;;;;;3.00;2.60;;;19.40;99.90;;;;;;4146661;28;20225;-72
2022/10/15 01:08:29;;;;;;;3.20;2.58;;;19.30;99.90;;;;;;4145660;28;20216;-72
2022/10/15 01:10:40;;;;;;;3.97;2.72;;;19.40;99.90;;;;;;4145803;28;20286;-72
2022/10/15 01:12:56;;;;;;;2.92;2.63;;;19.30;99.90;;;;;;4133158;28;20283;-72
2022/10/15 01:15:05;;;;;;;3.60;2.50;;;19.30;99.90;;;;;;4146092;28;20217;-72
2022/10/15 01:17:18;;;;;;;2.72;2.47;;;19.40;99.90;;;;;;4145287;28;20262;-72
2022/10/15 01:19:37;;;;;;;2.72;2.38;;;19.40;99.90;;;;;;4143071;28;20208;-72
2022/10/15 01:21:49;;;;;;;3.13;2.50;;;19.30;99.90;;;;;;4150279;28;20664;-72
2022/10/15 01:24:33;;;;;;;3.35;3.00;;;19.30;99.90;;;;;;4144844;28;20623;-72
2022/10/15 01:27:03;;;;;;;2.80;2.60;;;19.30;99.90;;;;;;4143783;28;20252;-72
2022/10/15 01:29:19;;;;;;;3.20;2.90;;;19.40;99.90;;;;;;4143978;28;20275;-72
2022/10/15 01:31:34;;;;;;;3.65;2.50;;;19.30;99.90;;;;;;4136685;28;20213;-72
2022/10/15 01:33:43;;;;;;;2.63;2.42;;;19.30;99.90;;;;;;4143598;28;20225;-72
2022/10/15 01:35:50;;;;;;;2.75;2.38;;;19.30;99.90;;;;;;4143096;28;20279;-72
2022/10/15 01:37:57;;;;;;;3.28;2.97;;;19.30;99.90;;;;;;4144489;28;20279;-72
2022/10/15 01:40:06;;;;;;;2.75;2.40;;;19.30;99.90;;;;;;4144598;28;20216;-72
2022/10/15 01:42:15;;;;;;;3.03;2.47;;;19.30;99.90;;;;;;4144515;28;20220;-72
2022/10/15 01:44:20;;;;;;;2.97;2.40;;;19.30;99.90;;;;;;4143271;28;20225;-72
2022/10/15 01:46:28;;;;;;;2.83;2.50;;;19.30;99.90;;;;;;4143497;28;20232;-72
2022/10/15 01:48:32;;;;;;;2.95;2.55;;;19.30;99.90;;;;;;4144563;28;20216;-72
2022/10/15 01:50:38;;;;;;;3.05;2.60;;;19.30;99.90;;;;;;4141712;28;20213;-73
2022/10/15 01:52:41;;;;;;;3.83;2.50;;;19.30;99.90;;;;;;4144131;28;20895;-73
2022/10/15 01:54:47;;;;;;;3.42;2.50;;;19.30;99.90;;;;;;4144331;28;20221;-72
2022/10/15 01:56:51;;;;;;;2.65;2.45;;;19.30;99.90;;;;;;4144485;28;20244;-73
2022/10/15 01:58:55;;;;;;;2.70;2.50;;;19.30;99.90;;;;;;4141744;28;20863;-73
2022/10/15 02:00:59;;;;;;;2.63;2.40;;;19.30;99.90;;;;;;4144270;28;20271;-73
2022/10/15 02:03:04;;;;;;;2.55;2.35;;;19.30;99.90;;;;;;4143933;28;20267;-73
2022/10/15 02:05:12;;;;;;;2.88;2.58;;;19.30;99.90;;;;;;4144132;28;20241;-73
2022/10/15 02:07:23;;;;;;;2.85;2.55;;;19.30;99.90;;;;;;4141467;28;20260;-72
2022/10/15 02:09:33;;;;;;;3.53;2.80;;;19.30;99.90;;;;;;4138790;28;20220;-73
2022/10/15 02:11:48;;;;;;;3.75;2.60;;;19.30;99.90;;;;;;4145354;28;20220;-73
2022/10/15 02:13:57;;;;;;;3.20;2.50;;;19.30;99.90;;;;;;4145756;28;20267;-73
2022/10/15 02:16:06;;;;;;;2.42;2.22;;;19.30;99.90;;;;;;4142950;28;20220;-73
2022/10/15 02:18:16;;;;;;;3.10;2.80;;;19.30;99.90;;;;;;4143746;28;20584;-72
2022/10/15 02:20:23;;;;;;;3.63;2.30;;;19.30;99.90;;;;;;4145538;28;20271;-72
2022/10/15 02:22:28;;;;;;;3.58;2.85;;;19.30;99.90;;;;;;4138829;28;20213;-72
2022/10/15 02:24:36;;;;;;;3.55;2.67;;;19.30;99.90;;;;;;4144394;28;20963;-72
2022/10/15 02:26:41;;;;;;;2.80;2.50;;;19.30;99.90;;;;;;4148009;28;20352;-72
2022/10/15 02:28:48;;;;;;;3.67;3.00;;;19.30;99.90;;;;;;4148833;28;20221;-72
2022/10/15 02:30:52;;;;;;;2.70;2.45;;;19.30;99.90;;;;;;4148416;28;20797;-72
2022/10/15 02:32:58;;;;;;;2.47;2.28;;;19.30;99.90;;;;;;4148357;28;20217;-72
2022/10/15 02:35:02;;;;;;;4.05;2.58;;;19.30;99.90;;;;;;4148483;28;20267;-72
2022/10/15 02:37:06;;;;;;;2.95;2.60;;;19.30;99.90;;;;;;4150075;28;20279;-72
2022/10/15 02:39:12;;;;;;;2.85;2.53;;;19.30;99.90;;;;;;4148926;28;20201;-71
2022/10/15 02:41:16;;;;;;;3.88;3.10;;;19.30;99.90;;;;;;4144953;28;20224;-72
2022/10/15 02:43:21;;;;;;;3.17;2.55;;;19.30;99.90;;;;;;4147498;28;20636;-72
2022/10/15 02:45:23;;;;;;;3.13;2.85;;;19.20;99.90;;;;;;4148286;28;20241;-72
2022/10/15 02:47:26;;;;;;;3.42;2.80;;;19.20;99.90;;;;;;4148217;28;20668;-72
2022/10/15 02:49:28;;;;;;;3.85;3.13;;;19.30;99.90;;;;;;4147692;28;20625;-72
2022/10/15 02:51:33;;;;;;;2.75;2.47;;;19.30;99.90;;;;;;4135555;28;20665;-72
2022/10/15 02:53:35;;;;;;;2.97;2.70;;;19.20;99.90;;;;;;4148423;28;20275;-72
2022/10/15 02:55:38;;;;;;;3.45;2.88;;;19.30;99.90;;;;;;4148048;28;20222;-72
2022/10/15 02:57:40;;;;;;;3.22;2.92;;;19.20;99.90;;;;;;4147795;28;20221;-72
2022/10/15 02:59:42;;;;;;;3.65;3.15;;;19.20;99.90;;;;;;4138252;28;20241;-72
2022/10/15 03:01:45;;;;;;;3.53;2.78;;;19.30;99.90;;;;;;4147865;28;20225;-73
2022/10/15 03:03:47;;;;;;;3.15;2.78;;;19.30;99.90;;;;;;4147489;28;20221;-72
2022/10/15 03:05:50;;;;;;;3.15;2.78;;;19.20;99.90;;;;;;4148022;28;20302;-72
2022/10/15 03:07:53;;;;;;;3.72;2.83;;;19.30;99.90;;;;;;4148164;28;20225;-72
2022/10/15 03:09:56;;;;;;;3.08;2.75;;;19.20;99.90;;;;;;4147767;28;20221;-72
2022/10/15 03:11:58;;;;;;;4.07;2.90;;;19.20;99.90;;;;;;4147226;28;20311;-72
2022/10/15 03:14:00;;;;;;;3.38;2.83;;;19.20;99.90;;;;;;4145089;28;20209;-72
2022/10/15 03:16:04;;;;;;;3.30;2.90;;;19.20;99.90;;;;;;4142885;28;20213;-72
2022/10/15 03:18:08;;;;;;;3.22;2.92;;;19.20;99.90;;;;;;4147177;28;20256;-72
2022/10/15 03:20:10;;;;;;;3.50;2.90;;;19.20;99.90;;;;;;4143572;28;20983;-72
2022/10/15 03:22:12;;;;;;;3.08;2.65;;;19.20;99.90;;;;;;4147529;28;20280;-72
2022/10/15 03:24:16;;;;;;;3.28;2.97;;;19.30;99.90;;;;;;4147846;28;20315;-72
2022/10/15 03:26:18;;;;;;;3.38;3.08;;;19.20;99.90;;;;;;4143023;28;20288;-71
2022/10/15 03:28:21;;;;;;;3.35;3.05;;;19.20;99.90;;;;;;4144684;28;20685;-71
2022/10/15 03:30:23;;;;;;;3.30;3.00;;;19.20;99.90;;;;;;4147259;28;20303;-72
2022/10/15 03:32:25;;;;;;;3.25;2.83;;;19.20;99.90;;;;;;4136735;28;20221;-72
2022/10/15 03:34:27;;;;;;;2.80;2.60;;;19.20;99.90;;;;;;4147912;28;20255;-72
2022/10/15 03:36:30;;;;;;;2.70;2.50;;;19.20;99.90;;;;;;4146412;28;20649;-71
2022/10/15 03:38:32;;;;;;;3.10;2.80;;;19.20;99.90;;;;;;4146950;28;20279;-71
2022/10/15 03:40:36;;;;;;;2.88;2.65;;;19.20;99.90;;;;;;4137599;28;20284;-71
2022/10/15 03:42:38;;;;;;;2.70;2.50;;;19.20;99.90;;;;;;4147469;28;20216;-72
2022/10/15 03:44:40;;;;;;;3.80;2.90;;;19.20;99.90;;;;;;4147851;28;20976;-71
2022/10/15 03:46:42;;;;;;;3.13;2.80;;;19.20;99.90;;;;;;4147123;28;20322;-71
2022/10/15 03:48:49;;;;;;;3.47;3.10;;;19.20;99.90;;;;;;4137626;28;20280;-72
2022/10/15 03:50:51;;;;;;;3.00;2.70;;;19.20;99.90;;;;;;4147489;28;20225;-72
2022/10/15 03:52:53;;;;;;;3.28;2.88;;;19.20;99.90;;;;;;4146643;28;20632;-72
2022/10/15 03:54:55;;;;;;;3.00;2.63;;;19.20;99.90;;;;;;4146997;28;20242;-72
2022/10/15 03:56:59;;;;;;;3.17;2.88;;;19.20;99.90;;;;;;4146952;28;20633;-71
2022/10/15 03:59:02;;;;;;;3.88;3.08;;;19.10;99.90;;;;;;4147215;28;20273;-72
2022/10/15 04:01:09;;;;;;;3.00;2.80;;;19.20;99.90;;;;;;4147192;28;20466;-73
2022/10/15 04:03:11;;;;;;;3.35;3.05;;;19.20;99.90;;;;;;4147159;28;20272;-72
2022/10/15 04:05:14;;;;;;;3.30;3.00;;;19.10;99.90;;;;;;4140059;28;20271;-76
2022/10/15 04:07:16;;;;;;;3.50;2.70;;;19.10;99.90;;;;;;4147122;28;20241;-76
2022/10/15 04:09:18;;;;;;;2.97;2.65;;;19.10;99.90;;;;;;4146474;28;20291;-77
2022/10/15 04:11:20;;;;;;;3.92;3.17;;;19.10;99.90;;;;;;4146923;28;20275;-77
2022/10/15 04:13:24;;;;;;;3.20;2.90;;;19.10;99.90;;;;;;4147735;28;20225;-77
2022/10/15 04:15:27;;;;;;;4.00;2.67;;;19.10;99.90;;;;;;4137661;28;20990;-77
2022/10/15 04:17:29;;;;;;;2.92;2.53;;;19.10;99.90;;;;;;4143576;28;20225;-76
2022/10/15 04:19:31;;;;;;;2.92;2.70;;;19.10;99.90;;;;;;4137237;28;20217;-77
2022/10/15 04:21:34;;;;;;;3.33;2.88;;;19.10;99.90;;;;;;4138260;28;20636;-77
2022/10/15 04:23:36;;;;;;;3.60;3.15;;;19.10;99.90;;;;;;4144633;28;20355;-77
2022/10/15 04:25:39;;;;;;;2.95;2.63;;;19.10;99.90;;;;;;4146618;28;20684;-76
2022/10/15 04:27:41;;;;;;;2.90;2.70;;;19.10;99.90;;;;;;4146965;28;20217;-76
2022/10/15 04:29:46;;;;;;;3.35;3.05;;;19.10;99.90;;;;;;4147086;28;20622;-76
2022/10/15 04:31:49;;;;;;;3.00;2.70;;;19.10;99.90;;;;;;4145395;28;20248;-77
2022/10/15 04:33:51;;;;;;;3.53;2.70;;;19.10;99.90;;;;;;4146416;28;20221;-76
2022/10/15 04:36:04;;;;;;;3.20;2.90;;;19.10;99.90;;;;;;4145058;28;20221;-76
2022/10/15 04:38:06;;;;;;;3.10;2.80;;;19.10;99.90;;;;;;4145160;28;20275;-76
2022/10/15 04:40:10;;;;;;;2.63;2.42;;;19.10;99.90;;;;;;4145002;28;20287;-77
2022/10/15 04:42:13;;;;;;;3.13;2.78;;;19.10;99.90;;;;;;4144837;28;20275;-77
2022/10/15 04:44:15;;;;;;;2.80;2.60;;;19.10;99.90;;;;;;4145115;28;20303;-77
2022/10/15 04:46:21;;;;;;;2.95;2.70;;;19.10;99.90;;;;;;4144928;28;20249;-77
2022/10/15 04:48:23;;;;;;;3.65;2.78;;;19.10;99.90;;;;;;4144973;28;20685;-77
2022/10/15 04:50:25;;;;;;;2.80;2.60;;;19.10;99.90;;;;;;4144451;28;20759;-77
2022/10/15 04:52:28;;;;;;;2.70;2.45;;;19.10;99.90;;;;;;4144048;28;20263;-76
2022/10/15 04:54:30;;;;;;;3.10;2.80;;;19.10;99.90;;;;;;4144616;28;20217;-78
2022/10/15 04:56:32;;;;;;;3.00;2.70;;;19.10;99.90;;;;;;4146937;28;20279;-77
2022/10/15 04:58:36;;;;;;;2.92;2.67;;;19.10;99.90;;;;;;4144798;28;20279;-75
2022/10/15 05:00:38;;;;;;;3.30;3.00;;;19.10;99.90;;;;;;4144656;28;20267;-76
2022/10/15 05:02:43;;;;;;;2.80;2.60;;;19.10;99.90;;;;;;4144966;28;20628;-76
2022/10/15 05:04:45;;;;;;;2.88;2.67;;;19.10;99.90;;;;;;4144749;28;20624;-77
2022/10/15 05:06:47;;;;;;;3.05;2.78;;;19.10;99.90;;;;;;4145116;28;20265;-76
2022/10/15 05:08:51;;;;;;;3.10;2.80;;;19.10;99.90;;;;;;4144601;28;20228;-77
2022/10/15 05:10:53;;;;;;;3.25;2.70;;;19.10;99.90;;;;;;4143565;28;20276;-76
2022/10/15 05:12:55;;;;;;;3.03;2.33;;;19.10;99.90;;;;;;4145100;28;20287;-77
2022/10/15 05:14:57;;;;;;;3.55;2.88;;;19.10;99.90;;;;;;4144978;28;20256;-76
2022/10/15 05:17:00;;;;;;;3.25;2.83;;;19.10;99.90;;;;;;4144808;28;20217;-76
2022/10/15 05:19:06;;;;;;;2.90;2.60;;;19.10;99.90;;;;;;4146607;28;20279;-77
2022/10/15 05:21:09;;;;;;;2.95;2.65;;;19.00;99.90;;;;;;4142640;28;20217;-77
2022/10/15 05:23:14;;;;;;;3.00;2.80;;;19.10;99.90;;;;;;4144558;28;20213;-77
2022/10/15 05:25:16;;;;;;;2.95;2.65;;;19.10;99.90;;;;;;4143902;28;20229;-77
2022/10/15 05:27:19;;;;;;;2.95;2.67;;;19.10;99.90;;;;;;4143351;28;20237;-77
2022/10/15 05:29:21;;;;;;;2.78;2.45;;;19.10;99.90;;;;;;4145056;28;20267;-77
2022/10/15 05:31:25;;;;;;;3.05;2.67;;;19.10;99.90;;;;;;4143879;28;20232;-77
2022/10/15 05:33:27;;;;;;;3.20;2.85;;;19.10;99.90;;;;;;4144785;28;20221;-77
2022/10/15 05:35:31;;;;;;;2.63;2.42;;;19.10;99.90;;;;;;4144438;28;20266;-77
2022/10/15 05:37:34;;;;;;;2.85;2.42;;;19.10;99.90;;;;;;4144568;28;20244;-77
2022/10/15 05:39:36;;;;;;;3.10;2.75;;;19.00;99.90;;;;;;4144531;28;20282;-77
2022/10/15 05:41:38;;;;;;;2.78;2.58;;;19.10;99.90;;;;;;4144009;28;20222;-76
2022/10/15 05:43:40;;;;;;;2.70;2.50;;;19.00;99.90;;;;;;4143077;28;20235;-77
2022/10/15 05:45:43;;;;;;;3.00;2.70;;;19.00;99.90;;;;;;4144937;28;20237;-77
2022/10/15 05:47:45;;;;;;;2.85;2.50;;;19.10;99.90;;;;;;4144639;28;20249;-76
2022/10/15 05:49:47;;;;;;;2.88;2.50;;;19.10;99.90;;;;;;4144230;28;20229;-76
2022/10/15 05:51:51;;;;;;;2.72;2.53;;;19.00;99.90;;;;;;4144180;28;20221;-77
2022/10/15 05:53:54;;;;;;;3.22;2.92;;;19.00;99.90;;;;;;4144739;28;20260;-77
2022/10/15 05:55:57;;;;;;;2.88;2.60;;;19.00;99.90;;;;;;4143206;28;20275;-77
2022/10/15 05:58:03;;;;;;;3.05;2.58;;;19.00;99.90;;;;;;4144461;28;20225;-76
2022/10/15 06:00:06;;;;;;;2.63;2.42;;;19.00;99.90;;;;;;4144177;28;20305;-76
2022/10/15 06:02:14;;;;;;;2.40;2.20;;;19.00;99.90;;;;;;4146335;28;20275;-77
2022/10/15 06:04:16;;;;;;;3.08;2.65;;;19.00;99.90;;;;;;4147437;28;20224;-76
2022/10/15 06:06:20;;;;;;;3.33;2.47;;;19.00;99.90;;;;;;4147479;28;20270;-76
2022/10/15 06:08:27;;;;;;;2.80;2.40;;;19.10;99.90;;;;;;4146230;28;20287;-76
2022/10/15 06:10:29;;;;;;;2.65;2.45;;;19.10;99.90;;;;;;4149516;28;20574;-76
2022/10/15 06:12:32;;;;;;;2.53;2.33;;;19.00;99.90;;;;;;4155988;28;20221;-76
2022/10/15 06:14:36;;;;;;;2.70;2.50;;;19.00;99.90;;;;;;4147624;28;20267;-76
2022/10/15 06:16:38;;;;;;;2.95;2.40;;;19.00;99.90;;;;;;4146388;28;20213;-76
2022/10/15 06:18:40;;;;;;;2.58;2.38;;;19.00;99.90;;;;;;4147708;28;20334;-76
2022/10/15 06:20:43;;;;;;;2.55;2.35;;;19.00;99.90;;;;;;4147895;28;20272;-77
2022/10/15 06:22:45;;;;;;;2.45;2.25;;;19.00;99.90;;;;;;4147126;28;20695;-76
2022/10/15 06:24:49;;;;;;;2.70;2.50;;;19.00;99.90;;;;;;4147034;28;20225;-77
2022/10/15 06:26:51;;;;;;;2.60;2.40;;;19.00;99.90;;;;;;4146898;28;20283;-76
2022/10/15 06:28:54;;;;;;;2.88;2.58;;;19.10;99.90;;;;;;4146408;28;20217;-76
2022/10/15 06:30:59;;;;;;;2.80;2.50;;;19.10;99.90;;;;;;4150717;28;20279;-77
2022/10/15 06:33:01;;;;;;;2.83;2.55;;;19.00;99.90;;;;;;4147371;28;20224;-76
2022/10/15 06:35:04;;;;;;;2.40;2.20;;;19.00;99.90;;;;;;4147740;28;20271;-76
2022/10/15 06:37:06;;;;;;;2.60;2.40;;;19.10;99.90;;;;;;4147090;28;20275;-76
2022/10/15 06:39:09;;;;;;;2.55;2.30;;;19.00;99.90;;;;;;4145297;28;20264;-76
2022/10/15 06:41:13;;;;;;;2.67;2.47;;;19.00;99.90;;;;;;4146435;28;20649;-76
2022/10/15 06:43:15;;;;;;;2.30;2.10;;;19.00;99.90;;;;;;4147022;28;20331;-76
2022/10/15 06:45:18;;;;;;;2.33;2.13;;;19.00;99.90;;;;;;4147007;28;20275;-76
2022/10/15 06:47:20;;;;;;;2.30;2.10;;;19.00;99.90;;;;;;4147211;28;20249;-76
2022/10/15 06:49:22;;;;;;;2.60;2.40;;;19.00;99.90;;;;;;4145094;28;20217;-76
2022/10/15 06:51:25;;;;;;;2.72;2.53;;;19.00;99.90;;;;;;4146983;28;20221;-76
2022/10/15 06:53:28;;;;;;;2.50;2.30;;;19.10;99.90;;;;;;4146572;28;20291;-76
2022/10/15 06:55:30;;;;;;;2.63;2.42;;;19.10;99.90;;;;;;4143191;28;20267;-76
2022/10/15 06:57:34;;;;;;;2.92;2.65;;;19.10;99.90;;;;;;4145167;28;20624;-77
2022/10/15 06:59:36;;;;;;;2.65;2.42;;;19.00;99.90;;;;;;4146685;28;20241;-77
2022/10/15 07:01:38;;;;;;;2.30;2.10;;;19.00;99.90;;;;;;4146704;28;20743;-76
2022/10/15 07:03:41;;;;;;;2.80;2.45;;;19.10;99.90;;;;;;4146333;28;20221;-76
2022/10/15 07:05:43;;;;;;;2.88;2.60;;;19.00;99.90;;;;;;4144661;28;20228;-76
2022/10/15 07:07:51;;;;;;;2.50;2.30;;;19.00;99.90;;;;;;4146908;28;20291;-76
2022/10/15 07:09:54;;;;;;;2.13;2.03;;;19.00;99.90;;;;;;4156715;28;20212;-76
2022/10/15 07:11:56;;;;;;;2.33;2.13;;;19.10;99.90;;;;;;4144711;28;20279;-77
2022/10/15 07:14:00;;;;;;;2.42;2.22;;;19.00;99.90;;;;;;4147028;28;20283;-76
2022/10/15 07:16:05;;;;;;;3.05;2.20;;;19.00;99.90;;;;;;4152794;28;20221;-76
2022/10/15 07:18:07;;;;;;;2.47;2.28;;;19.10;99.90;;;;;;4146558;28;20255;-76
2022/10/15 07:20:10;;;;;;;2.10;2.00;;;19.10;99.90;;;;;;4146524;28;20224;-76
2022/10/15 07:22:12;;;;;;;2.63;2.20;;;19.10;99.90;;;;;;4143151;28;20275;-76
2022/10/15 07:24:14;;;;;;;2.47;2.28;;;19.10;99.90;;;;;;4146480;28;20677;-76
2022/10/15 07:26:17;;;;;;;2.47;2.20;;;19.10;99.90;;;;;;4146409;28;20654;-76
2022/10/15 07:28:19;;;;;;;2.58;2.38;;;19.10;99.90;;;;;;4145303;28;20245;-77
2022/10/15 07:30:26;;;;;;;2.40;2.20;;;19.10;99.90;;;;;;4146734;28;20279;-77
2022/10/15 07:32:28;;;;;;;2.50;2.30;;;19.10;99.90;;;;;;4146267;28;20267;-76
2022/10/15 07:34:30;;;;;;;2.47;2.15;;;19.10;99.90;;;;;;4146033;28;20221;-76
2022/10/15 07:36:33;;;;;;;2.40;2.10;;;19.10;99.90;;;;;;4145490;28;20272;-77
2022/10/15 07:38:35;;;;;;;2.55;2.35;;;19.10;99.90;;;;;;4145965;28;20217;-76
2022/10/15 07:40:38;;;;;;;2.22;2.03;;;19.10;99.90;;;;;;4146196;28;20229;-76
2022/10/15 07:42:40;;;;;;;2.30;2.10;;;19.10;99.90;;;;;;4146025;28;20291;-76
2022/10/15 07:44:43;;;;;;;3.03;2.58;;;19.10;99.90;;;;;;4146499;28;20225;-76
2022/10/15 07:46:47;;;;;;;2.58;2.10;;;19.10;99.90;;;;;;4146339;28;20225;-77
2022/10/15 07:48:49;;;;;;;2.50;2.30;;;19.10;99.90;;;;;;4146023;28;20245;-76
2022/10/15 07:50:55;;;;;;;2.55;2.35;;;19.20;99.90;;;;;;4145158;28;20279;-76
2022/10/15 07:52:57;;;;;;;2.30;2.10;;;19.10;99.90;;;;;;4146264;28;20217;-76
2022/10/15 07:54:59;;;;;;;2.55;2.35;;;19.10;99.90;;;;;;4144808;28;20216;-76
2022/10/15 07:57:02;;;;;;;2.50;2.22;;;19.10;99.90;;;;;;4145971;28;20268;-77
2022/10/15 07:59:04;;;;;;;2.50;2.30;;;19.10;99.90;;;;;;4153521;28;20241;-77
2022/10/15 08:01:08;;;;;;;2.33;2.13;;;19.20;99.90;;;;;;4146094;28;20267;-76
2022/10/15 08:03:11;;;;;;;1.95;1.80;;;19.10;99.90;;;;;;4145897;28;20225;-76
2022/10/15 08:05:14;;;;;;;2.25;2.00;;;19.20;99.90;;;;;;4143723;28;20287;-76
2022/10/15 08:07:16;;;;;;;2.15;1.95;;;19.10;99.90;;;;;;4145374;28;20221;-76
2022/10/15 08:09:19;;;;;;;2.47;2.22;;;19.10;99.90;;;;;;4145666;28;21032;-77
2022/10/15 08:11:21;;;;;;;1.70;1.58;;;19.20;99.90;;;;;;4145253;28;21727;-76
2022/10/15 08:13:24;;;;;;;2.35;2.15;;;19.10;99.90;;;;;;4145596;28;20225;-76
2022/10/15 08:15:27;;;;;;;2.38;2.17;;;19.10;99.90;;;;;;4144840;28;20332;-77
2022/10/15 08:17:29;;;;;;;2.22;1.98;;;19.10;99.90;;;;;;4145816;28;20217;-77
2022/10/15 08:19:33;;;;;;;2.05;1.85;;;19.10;99.90;;;;;;4143570;28;20216;-76
2022/10/15 08:21:35;;;;;;;2.15;1.90;;;19.20;99.90;;;;;;4143804;28;20224;-76
2022/10/15 08:23:37;;;;;;;2.45;1.95;;;19.20;99.90;;;;;;4145122;28;20294;-77
2022/10/15 08:25:40;;;;;;;2.13;1.92;;;19.20;99.90;;;;;;4145872;28;20279;-76
2022/10/15 08:27:43;;;;;;;2.00;1.90;;;19.20;99.90;;;;;;4143847;28;20829;-76
2022/10/15 08:29:45;;;;;;;1.60;1.50;;;19.20;99.90;;;;;;4145327;28;20217;-77
2022/10/15 08:31:48;;;;;;;2.58;2.22;;;19.10;99.90;;;;;;4144536;28;20216;-76
2022/10/15 08:33:50;;;;;;;2.03;1.83;;;19.10;99.90;;;;;;4149036;28;20225;-76
2022/10/15 08:35:54;;;;;;;2.55;2.10;;;19.20;99.90;;;;;;4144306;28;20260;-77
2022/10/15 08:37:56;;;;;;;2.10;1.95;;;19.20;99.90;;;;;;4145387;28;20279;-77
2022/10/15 08:39:58;;;;;;;1.95;1.60;;;19.20;99.90;;;;;;4145310;28;20679;-76
2022/10/15 08:42:04;;;;;;;1.90;1.80;;;19.10;99.90;;;;;;4145138;28;20629;-77
2022/10/15 08:44:13;;;;;;;2.25;2.10;;;19.20;99.90;;;;;;4139463;28;20218;-77
2022/10/15 08:46:21;;;;;;;2.13;1.92;;;19.10;99.90;;;;;;4145596;28;20224;-76
2022/10/15 08:48:28;;;;;;;2.25;2.05;;;19.10;99.90;;;;;;4146705;28;20248;-76
2022/10/15 08:50:40;;;;;;;2.20;2.00;;;19.20;99.90;;;;;;4144828;28;20213;-76
2022/10/15 08:52:46;;;;;;;2.08;1.88;;;19.20;99.90;;;;;;4145223;28;20221;-76
2022/10/15 08:54:48;;;;;;;2.15;2.00;;;19.10;99.90;;;;;;4144872;28;20221;-77
2022/10/15 08:57:00;;;;;;;1.80;1.70;;;19.20;99.90;;;;;;4150169;28;20220;-77
2022/10/15 08:59:14;;;;;;;2.13;1.92;;;19.10;99.90;;;;;;4144515;28;20237;-76
2022/10/15 09:01:24;;;;;;;1.90;1.70;;;19.10;99.90;;;;;;4126643;28;20696;-76
2022/10/15 09:03:37;;;;;;;1.90;1.70;;;19.10;99.90;;;;;;4145010;28;20263;-76
2022/10/15 09:05:47;;;;;;;1.60;1.50;;;19.20;99.90;;;;;;4145074;28;20228;-76
2022/10/15 09:07:56;;;;;;;1.98;1.80;;;19.20;99.90;;;;;;4145056;28;20279;-77
2022/10/15 09:10:12;;;;;;;2.10;1.90;;;19.20;99.90;;;;;;4144098;28;20307;-77
2022/10/15 09:12:33;;;;;;;1.80;1.70;;;19.20;99.90;;;;;;4145040;28;20220;-76
2022/10/15 09:14:41;;;;;;;2.95;1.77;;;19.20;99.90;;;;;;4142459;28;20506;-77
2022/10/15 09:16:47;;;;;;;1.95;1.75;;;19.20;99.90;;;;;;4144126;28;20212;-76
2022/10/15 09:18:52;;;;;;;1.60;1.50;;;19.20;99.90;;;;;;4144452;28;20216;-76
2022/10/15 09:20:54;;;;;;;1.80;1.70;;;19.20;99.90;;;;;;4145016;28;20225;-76
2022/10/15 09:22:58;;;;;;;2.20;2.00;;;19.20;99.90;;;;;;4144154;28;20243;-77
2022/10/15 09:25:13;;;;;;;3.17;1.85;;;19.20;99.90;;;;;;4144979;28;20608;-76
2022/10/15 09:27:27;;;;;;;1.95;1.77;;;19.20;99.90;;;;;;4144707;28;20217;-76
2022/10/15 09:29:35;;;;;;;2.45;1.90;;;19.20;99.90;;;;;;4143823;28;20248;-76
2022/10/15 09:31:45;;;;;;;2.10;1.90;;;19.20;99.90;;;;;;4147082;28;20270;-76
2022/10/15 09:33:53;;;;;;;2.35;2.00;;;19.20;99.90;;;;;;4139870;28;20615;-76
2022/10/15 09:36:07;;;;;;;1.73;1.63;;;19.20;99.90;;;;;;4142672;28;20270;-77
2022/10/15 09:38:24;;;;;;;1.60;1.50;;;19.20;99.90;;;;;;4142788;28;20228;-76
2022/10/15 09:40:37;;;;;;;2.50;1.63;;;19.30;99.90;;;;;;4144089;28;20322;-76
2022/10/15 09:42:41;;;;;;;1.92;1.77;;;19.30;99.90;;;;;;4144646;28;20657;-76
2022/10/15 09:44:46;;;;;;;1.70;1.60;;;19.30;99.90;;;;;;4144966;28;20311;-77
2022/10/15 09:46:50;;;;;;;1.75;1.52;;;19.30;99.90;;;;;;4144635;28;20264;-77
2022/10/15 09:49:02;;;;;;;1.92;1.80;;;19.30;99.90;;;;;;4141720;28;20248;-77
2022/10/15 09:51:13;;;;;;;2.25;1.80;;;19.30;99.90;;;;;;4144525;28;20728;-76
2022/10/15 09:53:22;;;;;;;2.90;1.63;;;19.30;99.90;;;;;;4144667;28;20220;-76
2022/10/15 09:55:34;;;;;;;1.75;1.65;;;19.30;99.90;;;;;;4142669;28;20232;-76
2022/10/15 09:57:39;;;;;;;2.17;1.80;;;19.30;99.90;;;;;;4142341;28;20497;-76
2022/10/15 09:59:53;;;;;;;2.50;1.90;;;19.30;99.90;;;;;;4144574;28;20291;-76
2022/10/15 10:02:00;;;;;;;3.90;1.83;;;19.30;99.90;;;;;;4144676;28;20656;-76
2022/10/15 10:04:14;;;;;;;2.47;1.50;;;19.30;99.90;;;;;;4144942;28;20233;-76
2022/10/15 10:06:16;;;;;;;2.45;1.70;;;19.30;99.90;;;;;;4142651;28;20217;-77
2022/10/15 10:08:22;;;;;;;2.28;1.40;;;19.30;99.90;;;;;;4143939;28;20233;-76
2022/10/15 10:10:28;;;;;;;3.30;1.90;;;19.30;99.90;;;;;;4144103;28;20291;-76
2022/10/15 10:12:33;;;;;;;2.10;1.67;;;19.30;99.90;;;;;;4145052;28;20273;-77
2022/10/15 10:14:40;;;;;;;2.15;1.70;;;19.40;99.90;;;;;;4144321;28;20280;-76
2022/10/15 10:17:04;;;;;;;2.45;1.90;;;19.30;99.90;;;;;;4144619;28;20221;-76
2022/10/15 10:19:13;;;;;;;3.17;1.65;;;19.30;99.90;;;;;;4142089;28;20221;-76
2022/10/15 10:21:22;;;;;;;2.63;1.60;;;19.30;99.90;;;;;;4143052;28;20287;-76
2022/10/15 10:23:33;;;;;;;2.53;1.70;;;19.30;99.90;;;;;;4143207;28;20225;-76
2022/10/15 10:25:39;;;;;;;3.25;1.90;;;19.30;99.90;;;;;;4144541;28;20283;-75
2022/10/15 10:27:45;;;;;;;2.45;1.92;;;19.40;99.90;;;;;;4144010;28;20263;-76
2022/10/15 10:29:53;;;;;;;2.38;1.60;;;19.30;99.90;;;;;;4144307;28;20240;-77
2022/10/15 10:31:55;;;;;;;3.40;1.67;;;19.40;99.90;;;;;;4143921;28;20653;-77
2022/10/15 10:34:01;;;;;;;2.13;1.88;;;19.30;99.90;;;;;;4141676;28;20225;-76
2022/10/15 10:36:06;;;;;;;2.95;1.65;;;19.40;99.90;;;;;;4144095;28;20218;-77
2022/10/15 10:38:19;;;;;;;2.53;1.73;;;19.40;99.90;;;;;;4143738;28;20225;-76
2022/10/15 10:40:28;;;;;;;2.40;1.55;;;19.40;99.90;;;;;;4144032;28;20217;-77
2022/10/15 10:42:37;;;;;;;2.60;1.50;;;19.40;99.90;;;;;;4145052;28;20225;-76
2022/10/15 10:44:45;;;;;;;1.67;1.50;;;19.40;99.90;;;;;;4144345;28;20286;-76
2022/10/15 10:47:02;;;;;;;2.33;1.50;;;19.40;99.90;;;;;;4146198;28;20213;-76
2022/10/15 10:49:05;;;;;;;1.55;1.45;;;19.30;99.90;;;;;;4146766;28;20217;-77
2022/10/15 10:51:11;;;;;;;1.98;1.70;;;19.40;99.90;;;;;;4146750;28;20287;-77